sensor_id;sensor_type;location;lat;lon;timestamp;temperature;humidity
26186;DHT22;20067;48.764;9.176;2023-03-14T00:01:13;11.00;91.30
26186;DHT22;20067;48.764;9.176;2023-03-14T00:03:39;10.90;91.30
26186;DHT22;20067;48.764;9.176;2023-03-14T00:06:05;10.90;91.30
26186;DHT22;20067;48.764;9.176;2023-03-14T00:08:31;10.90;91.30
26186;DHT22;20067;48.764;9.176;2023-03-14T00:10:57;10.80;91.30
26186;DHT22;20067;48.764;9.176;2023-03-14T00:13:25;10.90;91.30
26186;DHT22;20067;48.764;9.176;2023-03-14T00:15:50;10.80;91.30
26186;DHT22;20067;48.764;9.176;2023-03-14T00:18:16;10.90;91.30
26186;DHT22;20067;48.764;9.176;2023-03-14T00:20:41;10.90;91.30
26186;DHT22;20067;48.764;9.176;2023-03-14T00:23:07;10.90;91.30
26186;DHT22;20067;48.764;9.176;2023-03-14T00:25:35;11.00;91.30
26186;DHT22;20067;48.764;9.176;2023-03-14T00:28:00;10.90;91.30
26186;DHT22;20067;48.764;9.176;2023-03-14T00:30:26;10.90;91.30
26186;DHT22;20067;48.764;9.176;2023-03-14T00:32:51;10.90;91.30
26186;DHT22;20067;48.764;9.176;2023-03-14T00:35:17;11.00;91.30
26186;DHT22;20067;48.764;9.176;2023-03-14T00:37:42;11.00;91.30
26186;DHT22;20067;48.764;9.176;2023-03-14T00:40:08;10.90;91.30
26186;DHT22;20067;48.764;9.176;2023-03-14T00:42:34;11.00;91.30
26186;DHT22;20067;48.764;9.176;2023-03-14T00:44:59;11.00;91.30
26186;DHT22;20067;48.764;9.176;2023-03-14T00:47:25;11.10;91.30
26186;DHT22;20067;48.764;9.176;2023-03-14T00:49:51;11.10;91.30
26186;DHT22;20067;48.764;9.176;2023-03-14T00:52:16;11.10;91.30
26186;DHT22;20067;48.764;9.176;2023-03-14T00:54:42;11.10;91.30
26186;DHT22;20067;48.764;9.176;2023-03-14T00:57:07;11.10;91.30
26186;DHT22;20067;48.764;9.176;2023-03-14T00:59:33;11.10;91.30
26186;DHT22;20067;48.764;9.176;2023-03-14T01:01:58;11.20;91.30
26186;DHT22;20067;48.764;9.176;2023-03-14T01:04:24;11.20;91.30
26186;DHT22;20067;48.764;9.176;2023-03-14T01:06:49;11.30;91.30
26186;DHT22;20067;48.764;9.176;2023-03-14T01:09:15;11.20;91.30
26186;DHT22;20067;48.764;9.176;2023-03-14T01:11:43;11.30;91.30
26186;DHT22;20067;48.764;9.176;2023-03-14T01:14:11;11.30;91.30
26186;DHT22;20067;48.764;9.176;2023-03-14T01:16:37;11.30;91.30
26186;DHT22;20067;48.764;9.176;2023-03-14T01:19:03;11.30;91.30
26186;DHT22;20067;48.764;9.176;2023-03-14T01:21:30;11.40;91.30
26186;DHT22;20067;48.764;9.176;2023-03-14T01:23:56;11.40;91.30
26186;DHT22;20067;48.764;9.176;2023-03-14T01:26:23;11.40;91.30
26186;DHT22;20067;48.764;9.176;2023-03-14T01:28:50;11.50;91.30
26186;DHT22;20067;48.764;9.176;2023-03-14T01:31:16;11.50;91.30
26186;DHT22;20067;48.764;9.176;2023-03-14T01:33:41;11.50;91.30
26186;DHT22;20067;48.764;9.176;2023-03-14T01:36:07;11.40;91.30
26186;DHT22;20067;48.764;9.176;2023-03-14T01:38:34;11.50;91.30
26186;DHT22;20067;48.764;9.176;2023-03-14T01:41:00;11.40;91.30
26186;DHT22;20067;48.764;9.176;2023-03-14T01:43:25;11.50;91.30
26186;DHT22;20067;48.764;9.176;2023-03-14T01:48:32;11.40;91.30
26186;DHT22;20067;48.764;9.176;2023-03-14T01:51:00;11.30;91.30
26186;DHT22;20067;48.764;9.176;2023-03-14T01:53:26;11.30;91.30
26186;DHT22;20067;48.764;9.176;2023-03-14T01:55:52;11.30;91.30
26186;DHT22;20067;48.764;9.176;2023-03-14T01:58:18;11.30;91.30
26186;DHT22;20067;48.764;9.176;2023-03-14T02:00:45;11.30;91.30
26186;DHT22;20067;48.764;9.176;2023-03-14T02:03:12;11.30;91.30
26186;DHT22;20067;48.764;9.176;2023-03-14T02:05:40;11.30;91.30
26186;DHT22;20067;48.764;9.176;2023-03-14T02:08:07;11.30;91.30
26186;DHT22;20067;48.764;9.176;2023-03-14T02:10:41;11.40;91.30
26186;DHT22;20067;48.764;9.176;2023-03-14T02:13:07;11.40;91.30
26186;DHT22;20067;48.764;9.176;2023-03-14T02:15:33;11.30;91.30
26186;DHT22;20067;48.764;9.176;2023-03-14T02:17:58;11.30;91.30
26186;DHT22;20067;48.764;9.176;2023-03-14T02:22:51;11.30;91.30
26186;DHT22;20067;48.764;9.176;2023-03-14T02:25:21;11.40;91.30
26186;DHT22;20067;48.764;9.176;2023-03-14T02:27:51;11.30;91.30
26186;DHT22;20067;48.764;9.176;2023-03-14T02:30:23;11.30;91.30
26186;DHT22;20067;48.764;9.176;2023-03-14T02:32:51;11.20;91.30
26186;DHT22;20067;48.764;9.176;2023-03-14T02:35:22;11.10;91.30
26186;DHT22;20067;48.764;9.176;2023-03-14T02:37:49;11.10;91.30
26186;DHT22;20067;48.764;9.176;2023-03-14T02:40:17;11.00;91.30
26186;DHT22;20067;48.764;9.176;2023-03-14T02:42:43;11.00;91.30
26186;DHT22;20067;48.764;9.176;2023-03-14T02:47:34;10.90;91.30
26186;DHT22;20067;48.764;9.176;2023-03-14T02:50:06;11.00;91.30
26186;DHT22;20067;48.764;9.176;2023-03-14T02:52:33;10.90;91.30
26186;DHT22;20067;48.764;9.176;2023-03-14T02:54:58;10.90;91.30
26186;DHT22;20067;48.764;9.176;2023-03-14T02:57:24;10.90;91.30
26186;DHT22;20067;48.764;9.176;2023-03-14T02:59:49;10.90;91.30
26186;DHT22;20067;48.764;9.176;2023-03-14T03:02:15;10.90;91.30
26186;DHT22;20067;48.764;9.176;2023-03-14T03:04:41;10.90;91.30
26186;DHT22;20067;48.764;9.176;2023-03-14T03:07:06;10.90;91.30
26186;DHT22;20067;48.764;9.176;2023-03-14T03:09:32;10.90;91.30
26186;DHT22;20067;48.764;9.176;2023-03-14T03:11:57;11.00;91.30
26186;DHT22;20067;48.764;9.176;2023-03-14T03:14:23;11.00;91.30
26186;DHT22;20067;48.764;9.176;2023-03-14T03:16:48;11.00;91.30
26186;DHT22;20067;48.764;9.176;2023-03-14T03:19:14;11.00;91.30
26186;DHT22;20067;48.764;9.176;2023-03-14T03:21:39;11.00;91.30
26186;DHT22;20067;48.764;9.176;2023-03-14T03:24:08;10.90;91.30
26186;DHT22;20067;48.764;9.176;2023-03-14T03:26:34;10.90;91.30
26186;DHT22;20067;48.764;9.176;2023-03-14T03:29:00;10.90;91.30
26186;DHT22;20067;48.764;9.176;2023-03-14T03:31:25;11.00;91.30
26186;DHT22;20067;48.764;9.176;2023-03-14T03:33:51;10.90;91.30
26186;DHT22;20067;48.764;9.176;2023-03-14T03:36:20;10.90;91.30
26186;DHT22;20067;48.764;9.176;2023-03-14T03:38:45;10.90;91.30
26186;DHT22;20067;48.764;9.176;2023-03-14T03:41:11;10.90;91.30
26186;DHT22;20067;48.764;9.176;2023-03-14T03:43:37;10.90;91.30
26186;DHT22;20067;48.764;9.176;2023-03-14T03:46:03;10.90;91.30
26186;DHT22;20067;48.764;9.176;2023-03-14T03:48:29;10.90;91.30
26186;DHT22;20067;48.764;9.176;2023-03-14T03:50:54;10.90;91.30
26186;DHT22;20067;48.764;9.176;2023-03-14T03:53:20;10.90;91.30
26186;DHT22;20067;48.764;9.176;2023-03-14T03:55:45;10.90;91.30
26186;DHT22;20067;48.764;9.176;2023-03-14T03:58:11;10.90;91.30
26186;DHT22;20067;48.764;9.176;2023-03-14T04:00:36;10.90;91.30
26186;DHT22;20067;48.764;9.176;2023-03-14T04:03:02;10.80;91.30
26186;DHT22;20067;48.764;9.176;2023-03-14T04:05:27;10.80;91.30
26186;DHT22;20067;48.764;9.176;2023-03-14T04:07:53;10.80;91.30
26186;DHT22;20067;48.764;9.176;2023-03-14T04:10:18;10.80;91.30
26186;DHT22;20067;48.764;9.176;2023-03-14T04:12:44;10.80;91.30
26186;DHT22;20067;48.764;9.176;2023-03-14T04:15:09;10.80;91.30
26186;DHT22;20067;48.764;9.176;2023-03-14T04:17:35;10.80;91.30
26186;DHT22;20067;48.764;9.176;2023-03-14T04:20:00;10.70;91.30
26186;DHT22;20067;48.764;9.176;2023-03-14T04:22:26;10.70;91.30
26186;DHT22;20067;48.764;9.176;2023-03-14T04:24:51;10.70;91.30
26186;DHT22;20067;48.764;9.176;2023-03-14T04:27:17;10.70;91.30
26186;DHT22;20067;48.764;9.176;2023-03-14T04:29:42;10.70;91.30
26186;DHT22;20067;48.764;9.176;2023-03-14T04:32:08;10.70;91.30
26186;DHT22;20067;48.764;9.176;2023-03-14T04:34:33;10.70;91.30
26186;DHT22;20067;48.764;9.176;2023-03-14T04:36:59;10.70;91.30
26186;DHT22;20067;48.764;9.176;2023-03-14T04:39:24;10.70;91.30
26186;DHT22;20067;48.764;9.176;2023-03-14T04:41:50;10.70;91.30
26186;DHT22;20067;48.764;9.176;2023-03-14T04:44:15;10.60;91.30
26186;DHT22;20067;48.764;9.176;2023-03-14T04:46:41;10.60;91.30
26186;DHT22;20067;48.764;9.176;2023-03-14T04:49:06;10.60;91.30
26186;DHT22;20067;48.764;9.176;2023-03-14T04:51:31;10.60;91.30
26186;DHT22;20067;48.764;9.176;2023-03-14T04:53:57;10.60;91.30
26186;DHT22;20067;48.764;9.176;2023-03-14T04:56:23;10.60;91.30
26186;DHT22;20067;48.764;9.176;2023-03-14T04:58:48;10.60;91.30
26186;DHT22;20067;48.764;9.176;2023-03-14T05:01:14;10.60;91.30
26186;DHT22;20067;48.764;9.176;2023-03-14T05:03:39;10.50;91.30
26186;DHT22;20067;48.764;9.176;2023-03-14T05:06:05;10.50;91.30
26186;DHT22;20067;48.764;9.176;2023-03-14T05:08:30;10.50;91.30
26186;DHT22;20067;48.764;9.176;2023-03-14T05:10:56;10.50;91.30
26186;DHT22;20067;48.764;9.176;2023-03-14T05:13:22;10.50;91.30
26186;DHT22;20067;48.764;9.176;2023-03-14T05:15:48;10.50;91.30
26186;DHT22;20067;48.764;9.176;2023-03-14T05:18:14;10.50;91.30
26186;DHT22;20067;48.764;9.176;2023-03-14T05:20:39;10.40;91.30
26186;DHT22;20067;48.764;9.176;2023-03-14T05:23:05;10.40;91.30
26186;DHT22;20067;48.764;9.176;2023-03-14T05:25:30;10.40;91.30
26186;DHT22;20067;48.764;9.176;2023-03-14T05:27:56;10.40;91.30
26186;DHT22;20067;48.764;9.176;2023-03-14T05:30:21;10.40;91.30
26186;DHT22;20067;48.764;9.176;2023-03-14T05:32:47;10.40;91.30
26186;DHT22;20067;48.764;9.176;2023-03-14T05:35:13;10.40;91.30
26186;DHT22;20067;48.764;9.176;2023-03-14T05:37:39;10.40;91.30
26186;DHT22;20067;48.764;9.176;2023-03-14T05:40:05;10.40;91.30
26186;DHT22;20067;48.764;9.176;2023-03-14T05:42:31;10.50;91.30
26186;DHT22;20067;48.764;9.176;2023-03-14T05:44:57;10.40;91.30
26186;DHT22;20067;48.764;9.176;2023-03-14T05:47:22;10.40;91.30
26186;DHT22;20067;48.764;9.176;2023-03-14T05:49:48;10.40;91.30
26186;DHT22;20067;48.764;9.176;2023-03-14T05:52:14;10.40;91.30
26186;DHT22;20067;48.764;9.176;2023-03-14T05:54:39;10.30;91.30
26186;DHT22;20067;48.764;9.176;2023-03-14T05:57:05;10.30;91.30
26186;DHT22;20067;48.764;9.176;2023-03-14T05:59:31;10.40;91.30
26186;DHT22;20067;48.764;9.176;2023-03-14T06:01:56;10.40;91.30
26186;DHT22;20067;48.764;9.176;2023-03-14T06:04:22;10.40;91.30
26186;DHT22;20067;48.764;9.176;2023-03-14T06:06:47;10.40;91.30
26186;DHT22;20067;48.764;9.176;2023-03-14T06:09:13;10.40;91.30
26186;DHT22;20067;48.764;9.176;2023-03-14T06:11:38;10.40;91.30
26186;DHT22;20067;48.764;9.176;2023-03-14T06:14:04;10.40;91.30
26186;DHT22;20067;48.764;9.176;2023-03-14T06:16:29;10.40;91.30
26186;DHT22;20067;48.764;9.176;2023-03-14T06:18:55;10.40;91.30
26186;DHT22;20067;48.764;9.176;2023-03-14T06:21:21;10.40;91.30
26186;DHT22;20067;48.764;9.176;2023-03-14T06:23:46;10.40;91.30
26186;DHT22;20067;48.764;9.176;2023-03-14T06:26:12;10.40;91.30
26186;DHT22;20067;48.764;9.176;2023-03-14T06:28:38;10.50;91.30
26186;DHT22;20067;48.764;9.176;2023-03-14T06:31:03;10.50;91.00
26186;DHT22;20067;48.764;9.176;2023-03-14T06:33:29;10.50;91.00
26186;DHT22;20067;48.764;9.176;2023-03-14T06:35:54;10.50;91.20
26186;DHT22;20067;48.764;9.176;2023-03-14T06:38:20;10.50;90.90
26186;DHT22;20067;48.764;9.176;2023-03-14T06:40:45;10.60;90.70
26186;DHT22;20067;48.764;9.176;2023-03-14T06:43:11;10.60;90.60
26186;DHT22;20067;48.764;9.176;2023-03-14T06:45:36;10.70;90.50
26186;DHT22;20067;48.764;9.176;2023-03-14T06:48:02;10.70;90.00
26186;DHT22;20067;48.764;9.176;2023-03-14T06:50:28;10.70;89.80
26186;DHT22;20067;48.764;9.176;2023-03-14T06:52:53;10.70;89.60
26186;DHT22;20067;48.764;9.176;2023-03-14T06:55:19;10.70;89.40
26186;DHT22;20067;48.764;9.176;2023-03-14T06:57:45;10.80;89.20
26186;DHT22;20067;48.764;9.176;2023-03-14T07:00:12;10.90;89.10
26186;DHT22;20067;48.764;9.176;2023-03-14T07:02:38;11.00;88.60
26186;DHT22;20067;48.764;9.176;2023-03-14T07:05:03;11.00;88.50
26186;DHT22;20067;48.764;9.176;2023-03-14T07:07:29;11.10;88.60
26186;DHT22;20067;48.764;9.176;2023-03-14T07:09:54;11.10;88.10
26186;DHT22;20067;48.764;9.176;2023-03-14T07:12:20;11.20;87.60
26186;DHT22;20067;48.764;9.176;2023-03-14T07:14:45;11.20;87.60
26186;DHT22;20067;48.764;9.176;2023-03-14T07:17:11;11.20;87.50
26186;DHT22;20067;48.764;9.176;2023-03-14T07:19:36;11.20;87.20
26186;DHT22;20067;48.764;9.176;2023-03-14T07:22:03;11.30;87.20
26186;DHT22;20067;48.764;9.176;2023-03-14T07:24:29;11.40;86.80
26186;DHT22;20067;48.764;9.176;2023-03-14T07:26:54;11.40;86.80
26186;DHT22;20067;48.764;9.176;2023-03-14T07:29:20;11.40;86.50
26186;DHT22;20067;48.764;9.176;2023-03-14T07:31:45;11.40;86.80
26186;DHT22;20067;48.764;9.176;2023-03-14T07:34:11;11.50;86.50
26186;DHT22;20067;48.764;9.176;2023-03-14T07:36:36;11.50;86.30
26186;DHT22;20067;48.764;9.176;2023-03-14T07:39:02;11.50;86.50
26186;DHT22;20067;48.764;9.176;2023-03-14T07:41:29;11.60;86.70
26186;DHT22;20067;48.764;9.176;2023-03-14T07:43:55;11.70;86.40
26186;DHT22;20067;48.764;9.176;2023-03-14T07:46:21;11.70;85.70
26186;DHT22;20067;48.764;9.176;2023-03-14T07:48:46;11.80;85.00
26186;DHT22;20067;48.764;9.176;2023-03-14T07:51:12;11.80;85.30
26186;DHT22;20067;48.764;9.176;2023-03-14T07:53:37;11.90;85.40
26186;DHT22;20067;48.764;9.176;2023-03-14T07:56:04;12.00;85.00
26186;DHT22;20067;48.764;9.176;2023-03-14T07:58:30;12.20;84.20
26186;DHT22;20067;48.764;9.176;2023-03-14T08:00:55;12.20;83.80
26186;DHT22;20067;48.764;9.176;2023-03-14T08:03:23;12.10;83.80
26186;DHT22;20067;48.764;9.176;2023-03-14T08:05:49;12.10;84.00
26186;DHT22;20067;48.764;9.176;2023-03-14T08:08:15;12.20;83.90
26186;DHT22;20067;48.764;9.176;2023-03-14T08:10:41;12.20;83.70
26186;DHT22;20067;48.764;9.176;2023-03-14T08:13:06;12.30;83.70
26186;DHT22;20067;48.764;9.176;2023-03-14T08:15:32;12.50;83.30
26186;DHT22;20067;48.764;9.176;2023-03-14T08:17:57;12.50;82.50
26186;DHT22;20067;48.764;9.176;2023-03-14T08:20:24;12.40;82.70
26186;DHT22;20067;48.764;9.176;2023-03-14T08:22:50;12.70;82.20
26186;DHT22;20067;48.764;9.176;2023-03-14T08:25:16;12.90;81.60
26186;DHT22;20067;48.764;9.176;2023-03-14T08:27:41;13.10;80.40
26186;DHT22;20067;48.764;9.176;2023-03-14T08:30:09;13.50;79.60
26186;DHT22;20067;48.764;9.176;2023-03-14T08:32:35;13.70;79.30
26186;DHT22;20067;48.764;9.176;2023-03-14T08:35:00;14.20;78.20
26186;DHT22;20067;48.764;9.176;2023-03-14T08:37:26;15.00;75.70
26186;DHT22;20067;48.764;9.176;2023-03-14T08:39:52;14.80;74.70
26186;DHT22;20067;48.764;9.176;2023-03-14T08:42:17;15.10;74.80
26186;DHT22;20067;48.764;9.176;2023-03-14T08:44:43;15.00;74.00
26186;DHT22;20067;48.764;9.176;2023-03-14T08:47:09;14.90;74.70
26186;DHT22;20067;48.764;9.176;2023-03-14T08:49:34;14.70;73.90
26186;DHT22;20067;48.764;9.176;2023-03-14T08:52:01;14.80;74.20
26186;DHT22;20067;48.764;9.176;2023-03-14T08:54:27;15.20;73.50
26186;DHT22;20067;48.764;9.176;2023-03-14T08:56:52;15.50;72.60
26186;DHT22;20067;48.764;9.176;2023-03-14T08:59:18;15.50;72.30
26186;DHT22;20067;48.764;9.176;2023-03-14T09:01:43;15.10;73.70
26186;DHT22;20067;48.764;9.176;2023-03-14T09:04:09;15.60;73.00
26186;DHT22;20067;48.764;9.176;2023-03-14T09:06:35;15.40;72.30
26186;DHT22;20067;48.764;9.176;2023-03-14T09:09:00;14.50;74.90
26186;DHT22;20067;48.764;9.176;2023-03-14T09:11:26;14.30;76.00
26186;DHT22;20067;48.764;9.176;2023-03-14T09:13:52;14.10;77.00
26186;DHT22;20067;48.764;9.176;2023-03-14T09:16:17;13.70;78.10
26186;DHT22;20067;48.764;9.176;2023-03-14T09:18:43;13.60;79.00
26186;DHT22;20067;48.764;9.176;2023-03-14T09:21:08;13.90;78.70
26186;DHT22;20067;48.764;9.176;2023-03-14T09:23:34;14.00;78.90
26186;DHT22;20067;48.764;9.176;2023-03-14T09:26:00;14.10;78.70
26186;DHT22;20067;48.764;9.176;2023-03-14T09:28:26;14.20;79.10
26186;DHT22;20067;48.764;9.176;2023-03-14T09:30:51;14.50;77.90
26186;DHT22;20067;48.764;9.176;2023-03-14T09:33:17;14.80;77.70
26186;DHT22;20067;48.764;9.176;2023-03-14T09:35:43;14.90;76.80
26186;DHT22;20067;48.764;9.176;2023-03-14T09:38:08;14.60;76.80
26186;DHT22;20067;48.764;9.176;2023-03-14T09:40:35;14.10;78.90
26186;DHT22;20067;48.764;9.176;2023-03-14T09:43:00;13.90;79.40
26186;DHT22;20067;48.764;9.176;2023-03-14T09:45:28;13.80;80.10
26186;DHT22;20067;48.764;9.176;2023-03-14T09:47:54;13.70;80.20
26186;DHT22;20067;48.764;9.176;2023-03-14T09:50:20;13.60;80.20
26186;DHT22;20067;48.764;9.176;2023-03-14T09:52:48;13.40;79.60
26186;DHT22;20067;48.764;9.176;2023-03-14T09:55:15;13.40;79.90
26186;DHT22;20067;48.764;9.176;2023-03-14T09:57:42;13.30;79.90
26186;DHT22;20067;48.764;9.176;2023-03-14T10:00:14;13.10;79.70
26186;DHT22;20067;48.764;9.176;2023-03-14T10:02:40;12.90;80.00
26186;DHT22;20067;48.764;9.176;2023-03-14T10:05:14;13.00;80.30
26186;DHT22;20067;48.764;9.176;2023-03-14T10:07:40;13.10;80.50
26186;DHT22;20067;48.764;9.176;2023-03-14T10:10:39;13.40;79.90
26186;DHT22;20067;48.764;9.176;2023-03-14T10:15:35;14.20;78.30
26186;DHT22;20067;48.764;9.176;2023-03-14T10:18:01;15.00;76.00
26186;DHT22;20067;48.764;9.176;2023-03-14T10:20:28;15.20;74.90
26186;DHT22;20067;48.764;9.176;2023-03-14T10:25:30;15.80;73.10
26186;DHT22;20067;48.764;9.176;2023-03-14T10:27:57;15.70;72.70
26186;DHT22;20067;48.764;9.176;2023-03-14T10:30:39;15.20;73.70
26186;DHT22;20067;48.764;9.176;2023-03-14T10:33:30;14.80;74.30
26186;DHT22;20067;48.764;9.176;2023-03-14T10:35:56;14.50;75.10
26186;DHT22;20067;48.764;9.176;2023-03-14T10:38:23;13.90;76.30
26186;DHT22;20067;48.764;9.176;2023-03-14T10:40:50;13.70;77.30
26186;DHT22;20067;48.764;9.176;2023-03-14T10:43:30;13.70;77.50
26186;DHT22;20067;48.764;9.176;2023-03-14T10:45:57;13.70;77.60
26186;DHT22;20067;48.764;9.176;2023-03-14T10:48:33;13.70;77.80
26186;DHT22;20067;48.764;9.176;2023-03-14T10:51:10;13.80;77.70
26186;DHT22;20067;48.764;9.176;2023-03-14T10:53:41;13.70;77.60
26186;DHT22;20067;48.764;9.176;2023-03-14T10:56:07;13.70;78.20
26186;DHT22;20067;48.764;9.176;2023-03-14T10:58:35;13.60;78.40
26186;DHT22;20067;48.764;9.176;2023-03-14T11:01:08;13.60;79.30
26186;DHT22;20067;48.764;9.176;2023-03-14T11:03:36;13.70;79.40
26186;DHT22;20067;48.764;9.176;2023-03-14T11:06:12;13.80;78.90
26186;DHT22;20067;48.764;9.176;2023-03-14T11:09:02;13.50;79.70
26186;DHT22;20067;48.764;9.176;2023-03-14T11:11:29;13.40;81.40
26186;DHT22;20067;48.764;9.176;2023-03-14T11:14:05;13.40;81.80
26186;DHT22;20067;48.764;9.176;2023-03-14T11:27:16;12.80;83.70
26186;DHT22;20067;48.764;9.176;2023-03-14T11:32:14;12.40;87.30
26186;DHT22;20067;48.764;9.176;2023-03-14T11:34:52;12.20;87.10
26186;DHT22;20067;48.764;9.176;2023-03-14T11:43:06;12.20;87.00
26186;DHT22;20067;48.764;9.176;2023-03-14T11:45:35;12.30;87.50
26186;DHT22;20067;48.764;9.176;2023-03-14T11:50:47;12.40;87.30
26186;DHT22;20067;48.764;9.176;2023-03-14T11:53:15;12.50;87.30
26186;DHT22;20067;48.764;9.176;2023-03-14T11:55:42;12.50;88.20
26186;DHT22;20067;48.764;9.176;2023-03-14T11:58:13;12.40;87.70
26186;DHT22;20067;48.764;9.176;2023-03-14T12:00:40;12.30;88.10
26186;DHT22;20067;48.764;9.176;2023-03-14T12:05:56;12.20;87.70
26186;DHT22;20067;48.764;9.176;2023-03-14T12:13:50;12.30;87.20
26186;DHT22;20067;48.764;9.176;2023-03-14T12:18:47;12.20;87.90
26186;DHT22;20067;48.764;9.176;2023-03-14T12:21:13;12.10;88.20
26186;DHT22;20067;48.764;9.176;2023-03-14T12:23:48;12.00;90.00
26186;DHT22;20067;48.764;9.176;2023-03-14T12:26:23;12.00;90.00
26186;DHT22;20067;48.764;9.176;2023-03-14T12:28:50;12.30;90.40
26186;DHT22;20067;48.764;9.176;2023-03-14T12:34:03;12.90;82.10
26186;DHT22;20067;48.764;9.176;2023-03-14T12:37:12;13.20;81.00
26186;DHT22;20067;48.764;9.176;2023-03-14T12:42:05;13.70;79.00
26186;DHT22;20067;48.764;9.176;2023-03-14T12:46:58;13.50;77.70
26186;DHT22;20067;48.764;9.176;2023-03-14T12:49:31;13.20;75.90
26186;DHT22;20067;48.764;9.176;2023-03-14T12:51:59;13.20;74.20
26186;DHT22;20067;48.764;9.176;2023-03-14T12:57:09;13.30;72.50
26186;DHT22;20067;48.764;9.176;2023-03-14T12:59:46;13.20;72.00
26186;DHT22;20067;48.764;9.176;2023-03-14T13:04:44;12.50;69.90
26186;DHT22;20067;48.764;9.176;2023-03-14T13:07:11;12.40;70.10
26186;DHT22;20067;48.764;9.176;2023-03-14T13:09:49;12.40;69.80
26186;DHT22;20067;48.764;9.176;2023-03-14T13:12:16;12.20;70.30
26186;DHT22;20067;48.764;9.176;2023-03-14T13:14:46;12.30;70.20
26186;DHT22;20067;48.764;9.176;2023-03-14T13:17:13;12.10;69.30
26186;DHT22;20067;48.764;9.176;2023-03-14T13:19:40;12.10;68.70
26186;DHT22;20067;48.764;9.176;2023-03-14T13:22:20;11.80;68.00
26186;DHT22;20067;48.764;9.176;2023-03-14T13:24:46;11.90;68.00
26186;DHT22;20067;48.764;9.176;2023-03-14T13:27:18;12.00;67.10
26186;DHT22;20067;48.764;9.176;2023-03-14T13:29:49;12.00;67.70
26186;DHT22;20067;48.764;9.176;2023-03-14T13:32:22;12.20;67.20
26186;DHT22;20067;48.764;9.176;2023-03-14T13:34:51;12.30;66.80
26186;DHT22;20067;48.764;9.176;2023-03-14T13:37:20;12.30;67.40
26186;DHT22;20067;48.764;9.176;2023-03-14T13:39:55;12.30;65.70
26186;DHT22;20067;48.764;9.176;2023-03-14T13:42:21;12.10;65.60
26186;DHT22;20067;48.764;9.176;2023-03-14T13:44:49;12.10;66.10
26186;DHT22;20067;48.764;9.176;2023-03-14T13:47:17;12.00;66.50
26186;DHT22;20067;48.764;9.176;2023-03-14T13:49:43;12.00;66.50
26186;DHT22;20067;48.764;9.176;2023-03-14T13:52:29;12.00;66.20
26186;DHT22;20067;48.764;9.176;2023-03-14T13:54:56;12.00;66.80
26186;DHT22;20067;48.764;9.176;2023-03-14T13:57:21;11.60;65.90
26186;DHT22;20067;48.764;9.176;2023-03-14T14:00:01;11.60;66.90
26186;DHT22;20067;48.764;9.176;2023-03-14T14:02:30;11.60;65.10
26186;DHT22;20067;48.764;9.176;2023-03-14T14:04:56;11.50;64.60
26186;DHT22;20067;48.764;9.176;2023-03-14T14:07:22;11.50;64.80
26186;DHT22;20067;48.764;9.176;2023-03-14T14:09:48;11.30;63.60
26186;DHT22;20067;48.764;9.176;2023-03-14T14:12:16;11.20;63.50
26186;DHT22;20067;48.764;9.176;2023-03-14T14:17:10;10.90;62.20
26186;DHT22;20067;48.764;9.176;2023-03-14T14:19:36;10.90;62.70
26186;DHT22;20067;48.764;9.176;2023-03-14T14:22:03;10.80;63.20
26186;DHT22;20067;48.764;9.176;2023-03-14T14:24:30;10.90;63.40
26186;DHT22;20067;48.764;9.176;2023-03-14T14:27:13;10.90;63.10
26186;DHT22;20067;48.764;9.176;2023-03-14T14:29:39;10.90;62.60
26186;DHT22;20067;48.764;9.176;2023-03-14T14:37:15;10.90;63.00
26186;DHT22;20067;48.764;9.176;2023-03-14T14:39:42;11.00;63.70
26186;DHT22;20067;48.764;9.176;2023-03-14T14:42:14;10.90;63.10
26186;DHT22;20067;48.764;9.176;2023-03-14T14:44:41;10.80;63.30
26186;DHT22;20067;48.764;9.176;2023-03-14T14:47:11;10.80;63.90
26186;DHT22;20067;48.764;9.176;2023-03-14T14:49:37;10.70;63.20
26186;DHT22;20067;48.764;9.176;2023-03-14T14:52:06;10.50;63.70
26186;DHT22;20067;48.764;9.176;2023-03-14T14:54:38;10.30;63.90
26186;DHT22;20067;48.764;9.176;2023-03-14T14:57:06;10.40;64.50
26186;DHT22;20067;48.764;9.176;2023-03-14T14:59:44;10.30;63.90
26186;DHT22;20067;48.764;9.176;2023-03-14T15:02:17;10.40;64.30
26186;DHT22;20067;48.764;9.176;2023-03-14T15:04:48;10.40;64.50
26186;DHT22;20067;48.764;9.176;2023-03-14T15:07:14;10.50;64.60
26186;DHT22;20067;48.764;9.176;2023-03-14T15:09:41;10.50;64.50
26186;DHT22;20067;48.764;9.176;2023-03-14T15:12:07;10.60;65.10
26186;DHT22;20067;48.764;9.176;2023-03-14T15:14:33;10.70;64.50
26186;DHT22;20067;48.764;9.176;2023-03-14T15:16:58;10.80;64.50
26186;DHT22;20067;48.764;9.176;2023-03-14T15:19:24;10.90;64.30
26186;DHT22;20067;48.764;9.176;2023-03-14T15:21:51;11.10;63.90
26186;DHT22;20067;48.764;9.176;2023-03-14T15:24:17;11.20;64.30
26186;DHT22;20067;48.764;9.176;2023-03-14T15:26:42;11.40;63.40
26186;DHT22;20067;48.764;9.176;2023-03-14T15:29:10;11.50;63.10
26186;DHT22;20067;48.764;9.176;2023-03-14T15:31:38;11.50;63.30
26186;DHT22;20067;48.764;9.176;2023-03-14T15:34:03;11.40;62.50
26186;DHT22;20067;48.764;9.176;2023-03-14T15:36:30;11.20;62.50
26186;DHT22;20067;48.764;9.176;2023-03-14T15:38:58;11.10;62.90
26186;DHT22;20067;48.764;9.176;2023-03-14T15:41:25;10.80;63.20
26186;DHT22;20067;48.764;9.176;2023-03-14T15:43:50;10.60;64.60
26186;DHT22;20067;48.764;9.176;2023-03-14T15:46:16;10.70;64.90
26186;DHT22;20067;48.764;9.176;2023-03-14T15:48:45;10.70;64.90
26186;DHT22;20067;48.764;9.176;2023-03-14T15:51:11;10.70;64.90
26186;DHT22;20067;48.764;9.176;2023-03-14T15:53:36;10.60;64.80
26186;DHT22;20067;48.764;9.176;2023-03-14T15:56:03;10.70;65.50
26186;DHT22;20067;48.764;9.176;2023-03-14T15:58:29;10.80;65.60
26186;DHT22;20067;48.764;9.176;2023-03-14T16:00:55;11.10;65.10
26186;DHT22;20067;48.764;9.176;2023-03-14T16:03:20;11.30;65.40
26186;DHT22;20067;48.764;9.176;2023-03-14T16:05:46;11.50;64.60
26186;DHT22;20067;48.764;9.176;2023-03-14T16:08:11;11.50;64.10
26186;DHT22;20067;48.764;9.176;2023-03-14T16:10:37;11.40;64.40
26186;DHT22;20067;48.764;9.176;2023-03-14T16:13:03;11.40;64.30
26186;DHT22;20067;48.764;9.176;2023-03-14T16:15:29;11.20;64.40
26186;DHT22;20067;48.764;9.176;2023-03-14T16:17:55;11.00;64.90
26186;DHT22;20067;48.764;9.176;2023-03-14T16:20:21;11.00;65.40
26186;DHT22;20067;48.764;9.176;2023-03-14T16:22:47;11.20;65.40
26186;DHT22;20067;48.764;9.176;2023-03-14T16:25:13;11.30;65.40
26186;DHT22;20067;48.764;9.176;2023-03-14T16:27:38;11.30;65.60
26186;DHT22;20067;48.764;9.176;2023-03-14T16:30:04;11.30;65.60
26186;DHT22;20067;48.764;9.176;2023-03-14T16:32:30;11.30;65.90
26186;DHT22;20067;48.764;9.176;2023-03-14T16:34:56;11.30;65.60